sensor_id;sensor_type;location;lat;lon;timestamp;P1;durP1;ratioP1;P2;durP2;ratioP2
46158;SDS011;31888;44.512;26.104;2023-03-01T00:01:23;56.22;;;24.80;;
46158;SDS011;31888;44.512;26.104;2023-03-01T00:03:49;56.45;;;24.83;;
46158;SDS011;31888;44.512;26.104;2023-03-01T00:06:14;58.58;;;26.63;;
46158;SDS011;31888;44.512;26.104;2023-03-01T00:08:40;60.92;;;25.67;;
46158;SDS011;31888;44.512;26.104;2023-03-01T00:11:06;56.45;;;27.15;;
46158;SDS011;31888;44.512;26.104;2023-03-01T00:13:32;59.22;;;26.50;;
46158;SDS011;31888;44.512;26.104;2023-03-01T00:15:57;55.25;;;26.23;;
46158;SDS011;31888;44.512;26.104;2023-03-01T00:18:21;54.40;;;24.58;;
46158;SDS011;31888;44.512;26.104;2023-03-01T00:20:49;62.55;;;27.83;;
46158;SDS011;31888;44.512;26.104;2023-03-01T00:23:13;61.20;;;27.23;;
46158;SDS011;31888;44.512;26.104;2023-03-01T00:25:42;61.55;;;27.67;;
46158;SDS011;31888;44.512;26.104;2023-03-01T00:28:07;65.90;;;28.92;;
46158;SDS011;31888;44.512;26.104;2023-03-01T00:30:31;58.90;;;25.73;;
46158;SDS011;31888;44.512;26.104;2023-03-01T00:32:56;57.08;;;25.88;;
46158;SDS011;31888;44.512;26.104;2023-03-01T00:35:21;63.33;;;26.00;;
46158;SDS011;31888;44.512;26.104;2023-03-01T00:37:45;59.20;;;25.33;;
46158;SDS011;31888;44.512;26.104;2023-03-01T00:40:10;57.00;;;25.45;;
46158;SDS011;31888;44.512;26.104;2023-03-01T00:42:37;58.85;;;25.70;;
46158;SDS011;31888;44.512;26.104;2023-03-01T00:45:01;56.33;;;25.38;;
46158;SDS011;31888;44.512;26.104;2023-03-01T00:47:29;54.05;;;26.10;;
46158;SDS011;31888;44.512;26.104;2023-03-01T00:49:53;61.33;;;27.33;;
46158;SDS011;31888;44.512;26.104;2023-03-01T00:52:18;60.45;;;27.25;;
46158;SDS011;31888;44.512;26.104;2023-03-01T00:54:42;56.90;;;27.27;;
46158;SDS011;31888;44.512;26.104;2023-03-01T00:57:07;57.50;;;26.05;;
46158;SDS011;31888;44.512;26.104;2023-03-01T00:59:33;65.30;;;28.13;;
46158;SDS011;31888;44.512;26.104;2023-03-01T01:01:58;57.90;;;27.35;;
46158;SDS011;31888;44.512;26.104;2023-03-01T01:04:22;62.25;;;28.02;;
46158;SDS011;31888;44.512;26.104;2023-03-01T01:06:47;63.40;;;28.05;;
46158;SDS011;31888;44.512;26.104;2023-03-01T01:09:12;60.67;;;27.70;;
46158;SDS011;31888;44.512;26.104;2023-03-01T01:11:40;65.32;;;28.80;;
46158;SDS011;31888;44.512;26.104;2023-03-01T01:14:05;70.07;;;29.80;;
46158;SDS011;31888;44.512;26.104;2023-03-01T01:16:31;66.18;;;28.27;;
46158;SDS011;31888;44.512;26.104;2023-03-01T01:18:56;62.72;;;27.65;;
46158;SDS011;31888;44.512;26.104;2023-03-01T01:21:23;62.25;;;28.45;;
46158;SDS011;31888;44.512;26.104;2023-03-01T01:23:49;66.78;;;28.40;;
46158;SDS011;31888;44.512;26.104;2023-03-01T01:26:15;62.17;;;27.77;;
46158;SDS011;31888;44.512;26.104;2023-03-01T01:28:41;66.60;;;28.15;;
46158;SDS011;31888;44.512;26.104;2023-03-01T01:31:06;63.60;;;29.45;;
46158;SDS011;31888;44.512;26.104;2023-03-01T01:33:32;69.65;;;29.60;;
46158;SDS011;31888;44.512;26.104;2023-03-01T01:35:56;65.28;;;30.48;;
46158;SDS011;31888;44.512;26.104;2023-03-01T01:38:22;61.08;;;27.38;;
46158;SDS011;31888;44.512;26.104;2023-03-01T01:40:46;63.95;;;29.02;;
46158;SDS011;31888;44.512;26.104;2023-03-01T01:43:13;68.70;;;28.98;;
46158;SDS011;31888;44.512;26.104;2023-03-01T01:45:43;68.93;;;29.92;;
46158;SDS011;31888;44.512;26.104;2023-03-01T01:48:10;64.05;;;29.20;;
46158;SDS011;31888;44.512;26.104;2023-03-01T01:50:40;62.38;;;28.92;;
46158;SDS011;31888;44.512;26.104;2023-03-01T01:53:08;63.03;;;29.63;;
46158;SDS011;31888;44.512;26.104;2023-03-01T01:55:36;65.07;;;29.17;;
46158;SDS011;31888;44.512;26.104;2023-03-01T01:58:04;64.65;;;29.70;;
46158;SDS011;31888;44.512;26.104;2023-03-01T02:00:32;68.53;;;28.27;;
46158;SDS011;31888;44.512;26.104;2023-03-01T02:02:57;63.33;;;29.58;;
46158;SDS011;31888;44.512;26.104;2023-03-01T02:05:26;65.38;;;29.63;;
46158;SDS011;31888;44.512;26.104;2023-03-01T02:07:58;64.70;;;28.33;;
46158;SDS011;31888;44.512;26.104;2023-03-01T02:10:23;66.60;;;28.52;;
46158;SDS011;31888;44.512;26.104;2023-03-01T02:12:49;66.00;;;28.17;;
46158;SDS011;31888;44.512;26.104;2023-03-01T02:15:36;68.38;;;28.45;;
46158;SDS011;31888;44.512;26.104;2023-03-01T02:18:02;60.80;;;27.35;;
46158;SDS011;31888;44.512;26.104;2023-03-01T02:20:31;67.35;;;30.05;;
46158;SDS011;31888;44.512;26.104;2023-03-01T02:23:00;63.22;;;27.88;;
46158;SDS011;31888;44.512;26.104;2023-03-01T02:25:32;70.13;;;30.00;;
46158;SDS011;31888;44.512;26.104;2023-03-01T02:28:04;63.72;;;27.92;;
46158;SDS011;31888;44.512;26.104;2023-03-01T02:30:35;65.82;;;29.13;;
46158;SDS011;31888;44.512;26.104;2023-03-01T02:33:20;55.33;;;24.58;;
46158;SDS011;31888;44.512;26.104;2023-03-01T02:35:44;66.45;;;29.85;;
46158;SDS011;31888;44.512;26.104;2023-03-01T02:38:09;61.75;;;27.85;;
46158;SDS011;31888;44.512;26.104;2023-03-01T02:40:34;60.13;;;26.60;;
46158;SDS011;31888;44.512;26.104;2023-03-01T02:42:59;53.13;;;22.85;;
46158;SDS011;31888;44.512;26.104;2023-03-01T02:45:24;59.45;;;28.17;;
46158;SDS011;31888;44.512;26.104;2023-03-01T02:47:52;62.35;;;26.60;;
46158;SDS011;31888;44.512;26.104;2023-03-01T02:50:26;60.53;;;25.58;;
46158;SDS011;31888;44.512;26.104;2023-03-01T02:53:08;61.80;;;26.73;;
46158;SDS011;31888;44.512;26.104;2023-03-01T02:55:36;62.40;;;27.58;;
46158;SDS011;31888;44.512;26.104;2023-03-01T02:58:01;60.83;;;26.35;;
46158;SDS011;31888;44.512;26.104;2023-03-01T03:00:29;60.13;;;26.83;;
46158;SDS011;31888;44.512;26.104;2023-03-01T03:03:00;53.85;;;22.83;;
46158;SDS011;31888;44.512;26.104;2023-03-01T03:05:25;58.38;;;25.42;;
46158;SDS011;31888;44.512;26.104;2023-03-01T03:07:52;54.63;;;25.63;;
46158;SDS011;31888;44.512;26.104;2023-03-01T03:10:19;61.95;;;27.48;;
46158;SDS011;31888;44.512;26.104;2023-03-01T03:12:48;58.08;;;25.67;;
46158;SDS011;31888;44.512;26.104;2023-03-01T03:15:14;55.33;;;24.00;;
46158;SDS011;31888;44.512;26.104;2023-03-01T03:17:40;54.58;;;24.77;;
46158;SDS011;31888;44.512;26.104;2023-03-01T03:20:10;53.67;;;24.98;;
46158;SDS011;31888;44.512;26.104;2023-03-01T03:22:41;52.78;;;25.17;;
46158;SDS011;31888;44.512;26.104;2023-03-01T03:25:06;49.70;;;23.95;;
46158;SDS011;31888;44.512;26.104;2023-03-01T03:27:34;49.40;;;22.70;;
46158;SDS011;31888;44.512;26.104;2023-03-01T03:29:58;52.05;;;24.48;;
46158;SDS011;31888;44.512;26.104;2023-03-01T03:32:24;50.47;;;22.83;;
46158;SDS011;31888;44.512;26.104;2023-03-01T03:34:48;51.45;;;23.58;;
46158;SDS011;31888;44.512;26.104;2023-03-01T03:37:14;53.72;;;22.88;;
46158;SDS011;31888;44.512;26.104;2023-03-01T03:39:52;52.33;;;22.85;;
46158;SDS011;31888;44.512;26.104;2023-03-01T03:42:18;54.45;;;22.70;;
46158;SDS011;31888;44.512;26.104;2023-03-01T03:44:43;53.97;;;23.80;;
46158;SDS011;31888;44.512;26.104;2023-03-01T03:47:07;58.00;;;25.17;;
46158;SDS011;31888;44.512;26.104;2023-03-01T03:49:33;53.08;;;23.25;;
46158;SDS011;31888;44.512;26.104;2023-03-01T03:51:58;55.40;;;24.63;;
46158;SDS011;31888;44.512;26.104;2023-03-01T03:54:24;45.45;;;18.02;;
46158;SDS011;31888;44.512;26.104;2023-03-01T03:56:48;52.30;;;22.92;;
46158;SDS011;31888;44.512;26.104;2023-03-01T03:59:12;52.65;;;23.23;;
46158;SDS011;31888;44.512;26.104;2023-03-01T04:01:37;58.35;;;24.27;;
46158;SDS011;31888;44.512;26.104;2023-03-01T04:04:02;49.97;;;23.10;;
46158;SDS011;31888;44.512;26.104;2023-03-01T04:06:26;53.00;;;23.65;;
46158;SDS011;31888;44.512;26.104;2023-03-01T04:08:51;58.80;;;24.67;;
46158;SDS011;31888;44.512;26.104;2023-03-01T04:11:24;57.03;;;25.02;;
46158;SDS011;31888;44.512;26.104;2023-03-01T04:13:51;54.50;;;23.85;;
46158;SDS011;31888;44.512;26.104;2023-03-01T04:16:18;55.25;;;24.45;;
46158;SDS011;31888;44.512;26.104;2023-03-01T04:18:43;53.63;;;23.50;;
46158;SDS011;31888;44.512;26.104;2023-03-01T04:21:07;55.33;;;23.60;;
46158;SDS011;31888;44.512;26.104;2023-03-01T04:23:32;56.38;;;25.33;;
46158;SDS011;31888;44.512;26.104;2023-03-01T04:25:58;50.97;;;24.75;;
46158;SDS011;31888;44.512;26.104;2023-03-01T04:28:24;54.40;;;23.98;;
46158;SDS011;31888;44.512;26.104;2023-03-01T04:30:50;55.58;;;24.00;;
46158;SDS011;31888;44.512;26.104;2023-03-01T04:33:15;54.35;;;24.67;;
46158;SDS011;31888;44.512;26.104;2023-03-01T04:35:40;57.65;;;24.27;;
46158;SDS011;31888;44.512;26.104;2023-03-01T04:38:05;55.13;;;22.67;;
46158;SDS011;31888;44.512;26.104;2023-03-01T04:40:30;58.67;;;25.10;;
46158;SDS011;31888;44.512;26.104;2023-03-01T04:42:55;55.47;;;23.77;;
46158;SDS011;31888;44.512;26.104;2023-03-01T04:45:21;56.33;;;25.35;;
46158;SDS011;31888;44.512;26.104;2023-03-01T04:47:46;61.03;;;25.13;;
46158;SDS011;31888;44.512;26.104;2023-03-01T04:50:12;56.60;;;24.90;;
46158;SDS011;31888;44.512;26.104;2023-03-01T04:52:37;56.42;;;22.67;;
46158;SDS011;31888;44.512;26.104;2023-03-01T04:55:02;57.03;;;26.35;;
46158;SDS011;31888;44.512;26.104;2023-03-01T04:57:27;57.58;;;25.25;;
46158;SDS011;31888;44.512;26.104;2023-03-01T04:59:52;65.25;;;26.98;;
46158;SDS011;31888;44.512;26.104;2023-03-01T05:02:18;57.95;;;26.17;;
46158;SDS011;31888;44.512;26.104;2023-03-01T05:04:42;61.47;;;26.63;;
46158;SDS011;31888;44.512;26.104;2023-03-01T05:07:07;61.20;;;27.17;;
46158;SDS011;31888;44.512;26.104;2023-03-01T05:09:31;57.58;;;26.75;;
46158;SDS011;31888;44.512;26.104;2023-03-01T05:11:56;57.47;;;25.58;;
46158;SDS011;31888;44.512;26.104;2023-03-01T05:14:20;55.97;;;25.05;;
46158;SDS011;31888;44.512;26.104;2023-03-01T05:16:45;59.75;;;24.17;;
46158;SDS011;31888;44.512;26.104;2023-03-01T05:19:12;58.70;;;26.65;;
46158;SDS011;31888;44.512;26.104;2023-03-01T05:21:38;61.22;;;26.67;;
46158;SDS011;31888;44.512;26.104;2023-03-01T05:24:23;61.60;;;25.73;;
46158;SDS011;31888;44.512;26.104;2023-03-01T05:26:47;59.90;;;25.52;;
46158;SDS011;31888;44.512;26.104;2023-03-01T05:29:14;59.28;;;25.83;;
46158;SDS011;31888;44.512;26.104;2023-03-01T05:31:39;54.55;;;25.42;;
46158;SDS011;31888;44.512;26.104;2023-03-01T05:34:04;58.42;;;25.75;;
46158;SDS011;31888;44.512;26.104;2023-03-01T05:36:30;55.13;;;23.95;;
46158;SDS011;31888;44.512;26.104;2023-03-01T05:38:55;57.72;;;25.48;;
46158;SDS011;31888;44.512;26.104;2023-03-01T05:41:19;53.45;;;24.98;;
46158;SDS011;31888;44.512;26.104;2023-03-01T05:43:43;56.45;;;26.27;;
46158;SDS011;31888;44.512;26.104;2023-03-01T05:46:08;56.53;;;25.75;;
46158;SDS011;31888;44.512;26.104;2023-03-01T05:48:35;55.53;;;24.95;;
46158;SDS011;31888;44.512;26.104;2023-03-01T05:51:00;59.28;;;25.33;;
46158;SDS011;31888;44.512;26.104;2023-03-01T05:53:26;59.13;;;27.05;;
46158;SDS011;31888;44.512;26.104;2023-03-01T05:55:51;57.83;;;26.27;;
46158;SDS011;31888;44.512;26.104;2023-03-01T05:58:17;58.72;;;26.15;;
46158;SDS011;31888;44.512;26.104;2023-03-01T06:00:44;64.97;;;27.92;;
46158;SDS011;31888;44.512;26.104;2023-03-01T06:03:10;53.92;;;26.70;;
46158;SDS011;31888;44.512;26.104;2023-03-01T06:05:37;65.93;;;26.58;;
46158;SDS011;31888;44.512;26.104;2023-03-01T06:08:03;61.92;;;26.48;;
46158;SDS011;31888;44.512;26.104;2023-03-01T06:10:29;59.58;;;25.35;;
46158;SDS011;31888;44.512;26.104;2023-03-01T06:12:53;60.22;;;24.77;;
46158;SDS011;31888;44.512;26.104;2023-03-01T06:15:18;58.15;;;25.13;;
46158;SDS011;31888;44.512;26.104;2023-03-01T06:17:44;64.35;;;27.63;;
46158;SDS011;31888;44.512;26.104;2023-03-01T06:20:10;54.15;;;25.77;;
46158;SDS011;31888;44.512;26.104;2023-03-01T06:22:37;56.28;;;25.23;;
46158;SDS011;31888;44.512;26.104;2023-03-01T06:25:03;63.00;;;26.90;;
46158;SDS011;31888;44.512;26.104;2023-03-01T06:27:30;64.10;;;26.67;;
46158;SDS011;31888;44.512;26.104;2023-03-01T06:29:55;59.97;;;26.92;;
46158;SDS011;31888;44.512;26.104;2023-03-01T06:32:19;67.90;;;29.15;;
46158;SDS011;31888;44.512;26.104;2023-03-01T06:34:44;61.95;;;26.95;;
46158;SDS011;31888;44.512;26.104;2023-03-01T06:37:08;61.70;;;26.67;;
46158;SDS011;31888;44.512;26.104;2023-03-01T06:39:33;61.45;;;26.73;;
46158;SDS011;31888;44.512;26.104;2023-03-01T06:41:57;62.78;;;26.65;;
46158;SDS011;31888;44.512;26.104;2023-03-01T06:44:23;62.60;;;26.10;;
46158;SDS011;31888;44.512;26.104;2023-03-01T06:46:48;60.28;;;26.48;;
46158;SDS011;31888;44.512;26.104;2023-03-01T06:49:13;55.58;;;22.90;;
46158;SDS011;31888;44.512;26.104;2023-03-01T06:51:38;63.45;;;26.73;;
46158;SDS011;31888;44.512;26.104;2023-03-01T06:54:03;60.67;;;26.73;;
46158;SDS011;31888;44.512;26.104;2023-03-01T06:56:28;59.85;;;26.75;;
46158;SDS011;31888;44.512;26.104;2023-03-01T06:58:53;64.53;;;27.08;;
46158;SDS011;31888;44.512;26.104;2023-03-01T07:01:19;67.40;;;29.75;;
46158;SDS011;31888;44.512;26.104;2023-03-01T07:03:45;62.42;;;27.75;;
46158;SDS011;31888;44.512;26.104;2023-03-01T07:06:09;57.78;;;25.42;;
46158;SDS011;31888;44.512;26.104;2023-03-01T07:08:34;59.45;;;26.45;;
46158;SDS011;31888;44.512;26.104;2023-03-01T07:10:59;58.13;;;26.20;;
46158;SDS011;31888;44.512;26.104;2023-03-01T07:13:26;69.30;;;29.10;;
46158;SDS011;31888;44.512;26.104;2023-03-01T07:15:51;62.42;;;27.27;;
46158;SDS011;31888;44.512;26.104;2023-03-01T07:18:17;62.30;;;27.77;;
46158;SDS011;31888;44.512;26.104;2023-03-01T07:20:42;65.90;;;27.00;;
46158;SDS011;31888;44.512;26.104;2023-03-01T07:23:06;61.30;;;27.45;;
46158;SDS011;31888;44.512;26.104;2023-03-01T07:25:31;66.03;;;30.20;;
46158;SDS011;31888;44.512;26.104;2023-03-01T07:27:56;71.05;;;29.80;;
46158;SDS011;31888;44.512;26.104;2023-03-01T07:30:20;70.82;;;28.77;;
46158;SDS011;31888;44.512;26.104;2023-03-01T07:32:48;67.38;;;29.92;;
46158;SDS011;31888;44.512;26.104;2023-03-01T07:35:17;62.08;;;28.52;;
46158;SDS011;31888;44.512;26.104;2023-03-01T07:37:42;76.47;;;30.10;;
46158;SDS011;31888;44.512;26.104;2023-03-01T07:40:07;61.50;;;29.02;;
46158;SDS011;31888;44.512;26.104;2023-03-01T07:42:35;63.75;;;28.00;;
46158;SDS011;31888;44.512;26.104;2023-03-01T07:45:00;63.45;;;28.67;;
46158;SDS011;31888;44.512;26.104;2023-03-01T07:47:27;68.20;;;29.80;;
46158;SDS011;31888;44.512;26.104;2023-03-01T07:49:52;67.28;;;28.10;;
46158;SDS011;31888;44.512;26.104;2023-03-01T07:52:21;74.57;;;30.40;;
46158;SDS011;31888;44.512;26.104;2023-03-01T07:54:46;64.13;;;25.83;;
46158;SDS011;31888;44.512;26.104;2023-03-01T07:57:10;68.90;;;30.17;;
46158;SDS011;31888;44.512;26.104;2023-03-01T07:59:35;67.57;;;28.60;;
46158;SDS011;31888;44.512;26.104;2023-03-01T08:02:00;77.45;;;31.25;;
46158;SDS011;31888;44.512;26.104;2023-03-01T08:04:24;72.25;;;29.55;;
46158;SDS011;31888;44.512;26.104;2023-03-01T08:06:49;66.53;;;29.77;;
46158;SDS011;31888;44.512;26.104;2023-03-01T08:09:15;70.50;;;30.33;;
46158;SDS011;31888;44.512;26.104;2023-03-01T08:11:40;66.38;;;28.70;;
46158;SDS011;31888;44.512;26.104;2023-03-01T08:14:05;63.67;;;27.90;;
46158;SDS011;31888;44.512;26.104;2023-03-01T08:16:30;70.65;;;29.63;;
46158;SDS011;31888;44.512;26.104;2023-03-01T08:18:56;67.90;;;31.95;;
46158;SDS011;31888;44.512;26.104;2023-03-01T08:21:23;73.78;;;28.55;;
46158;SDS011;31888;44.512;26.104;2023-03-01T08:23:48;75.78;;;31.55;;
46158;SDS011;31888;44.512;26.104;2023-03-01T08:26:15;70.47;;;31.25;;
46158;SDS011;31888;44.512;26.104;2023-03-01T08:28:41;67.93;;;31.45;;
46158;SDS011;31888;44.512;26.104;2023-03-01T08:31:13;72.63;;;29.63;;
46158;SDS011;31888;44.512;26.104;2023-03-01T08:33:39;72.85;;;32.25;;
46158;SDS011;31888;44.512;26.104;2023-03-01T08:36:04;80.82;;;33.50;;
46158;SDS011;31888;44.512;26.104;2023-03-01T08:38:29;79.13;;;31.10;;
46158;SDS011;31888;44.512;26.104;2023-03-01T08:40:54;76.50;;;33.38;;
46158;SDS011;31888;44.512;26.104;2023-03-01T08:43:20;70.15;;;33.03;;
46158;SDS011;31888;44.512;26.104;2023-03-01T08:45:48;72.50;;;30.67;;
46158;SDS011;31888;44.512;26.104;2023-03-01T08:48:12;72.00;;;31.00;;
46158;SDS011;31888;44.512;26.104;2023-03-01T08:50:36;75.07;;;32.45;;
46158;SDS011;31888;44.512;26.104;2023-03-01T08:53:03;73.43;;;31.52;;
46158;SDS011;31888;44.512;26.104;2023-03-01T08:55:28;72.38;;;32.20;;
46158;SDS011;31888;44.512;26.104;2023-03-01T08:57:52;77.75;;;34.47;;
46158;SDS011;31888;44.512;26.104;2023-03-01T09:00:19;69.13;;;30.17;;
46158;SDS011;31888;44.512;26.104;2023-03-01T09:02:44;73.18;;;29.60;;
46158;SDS011;31888;44.512;26.104;2023-03-01T09:05:08;68.13;;;31.42;;
46158;SDS011;31888;44.512;26.104;2023-03-01T09:07:33;74.53;;;31.88;;
46158;SDS011;31888;44.512;26.104;2023-03-01T09:09:57;74.05;;;31.85;;
46158;SDS011;31888;44.512;26.104;2023-03-01T09:12:22;71.78;;;30.70;;
46158;SDS011;31888;44.512;26.104;2023-03-01T09:14:48;77.32;;;32.13;;
46158;SDS011;31888;44.512;26.104;2023-03-01T09:17:14;71.50;;;29.08;;
46158;SDS011;31888;44.512;26.104;2023-03-01T09:19:38;71.28;;;31.48;;
46158;SDS011;31888;44.512;26.104;2023-03-01T09:22:03;70.95;;;28.10;;
46158;SDS011;31888;44.512;26.104;2023-03-01T09:24:28;72.85;;;31.05;;
46158;SDS011;31888;44.512;26.104;2023-03-01T09:26:53;72.28;;;30.83;;
46158;SDS011;31888;44.512;26.104;2023-03-01T09:29:18;73.63;;;32.03;;
46158;SDS011;31888;44.512;26.104;2023-03-01T09:31:43;74.68;;;32.22;;
46158;SDS011;31888;44.512;26.104;2023-03-01T09:34:09;68.97;;;30.55;;
46158;SDS011;31888;44.512;26.104;2023-03-01T09:36:37;76.57;;;32.17;;
46158;SDS011;31888;44.512;26.104;2023-03-01T09:39:02;69.97;;;30.13;;
46158;SDS011;31888;44.512;26.104;2023-03-01T09:41:36;69.13;;;30.77;;
46158;SDS011;31888;44.512;26.104;2023-03-01T09:44:10;80.50;;;32.65;;
46158;SDS011;31888;44.512;26.104;2023-03-01T09:46:40;75.20;;;31.58;;
46158;SDS011;31888;44.512;26.104;2023-03-01T09:49:09;75.53;;;33.55;;
46158;SDS011;31888;44.512;26.104;2023-03-01T09:51:42;69.95;;;33.55;;
46158;SDS011;31888;44.512;26.104;2023-03-01T09:54:11;79.55;;;32.95;;
46158;SDS011;31888;44.512;26.104;2023-03-01T09:56:39;67.45;;;32.13;;
46158;SDS011;31888;44.512;26.104;2023-03-01T09:59:10;67.75;;;29.80;;
46158;SDS011;31888;44.512;26.104;2023-03-01T10:01:46;73.03;;;30.40;;
46158;SDS011;31888;44.512;26.104;2023-03-01T10:04:32;72.88;;;31.88;;
46158;SDS011;31888;44.512;26.104;2023-03-01T10:07:17;71.70;;;30.60;;
46158;SDS011;31888;44.512;26.104;2023-03-01T10:09:50;64.85;;;28.90;;
46158;SDS011;31888;44.512;26.104;2023-03-01T10:12:16;67.03;;;29.95;;
46158;SDS011;31888;44.512;26.104;2023-03-01T10:14:43;67.22;;;29.05;;
46158;SDS011;31888;44.512;26.104;2023-03-01T10:17:17;63.17;;;28.02;;
46158;SDS011;31888;44.512;26.104;2023-03-01T10:19:53;63.25;;;27.55;;
46158;SDS011;31888;44.512;26.104;2023-03-01T10:22:19;59.85;;;27.70;;
46158;SDS011;31888;44.512;26.104;2023-03-01T10:24:44;59.53;;;27.90;;
46158;SDS011;31888;44.512;26.104;2023-03-01T10:27:11;52.90;;;24.98;;
46158;SDS011;31888;44.512;26.104;2023-03-01T10:29:43;54.78;;;24.58;;
46158;SDS011;31888;44.512;26.104;2023-03-01T10:32:14;61.45;;;25.58;;
46158;SDS011;31888;44.512;26.104;2023-03-01T10:34:39;51.55;;;22.55;;
46158;SDS011;31888;44.512;26.104;2023-03-01T10:37:10;48.25;;;23.33;;
46158;SDS011;31888;44.512;26.104;2023-03-01T10:39:36;52.13;;;21.20;;
46158;SDS011;31888;44.512;26.104;2023-03-01T10:42:01;52.28;;;21.98;;
46158;SDS011;31888;44.512;26.104;2023-03-01T10:44:37;54.47;;;21.98;;
46158;SDS011;31888;44.512;26.104;2023-03-01T10:47:04;51.55;;;21.92;;
46158;SDS011;31888;44.512;26.104;2023-03-01T10:49:28;68.75;;;22.75;;
46158;SDS011;31888;44.512;26.104;2023-03-01T10:51:53;58.55;;;20.25;;
46158;SDS011;31888;44.512;26.104;2023-03-01T10:54:20;53.17;;;22.63;;
46158;SDS011;31888;44.512;26.104;2023-03-01T10:56:47;54.72;;;23.88;;
46158;SDS011;31888;44.512;26.104;2023-03-01T10:59:20;57.35;;;23.40;;
46158;SDS011;31888;44.512;26.104;2023-03-01T11:02:02;62.67;;;25.37;;
46158;SDS011;31888;44.512;26.104;2023-03-01T11:04:56;57.20;;;23.95;;
46158;SDS011;31888;44.512;26.104;2023-03-01T11:07:25;55.50;;;24.95;;
46158;SDS011;31888;44.512;26.104;2023-03-01T11:09:51;74.20;;;28.17;;
46158;SDS011;31888;44.512;26.104;2023-03-01T11:12:18;52.20;;;23.50;;
46158;SDS011;31888;44.512;26.104;2023-03-01T11:14:46;61.60;;;23.52;;
46158;SDS011;31888;44.512;26.104;2023-03-01T11:17:12;54.58;;;24.08;;
46158;SDS011;31888;44.512;26.104;2023-03-01T11:19:41;55.70;;;24.50;;
46158;SDS011;31888;44.512;26.104;2023-03-01T11:22:22;54.85;;;23.63;;
46158;SDS011;31888;44.512;26.104;2023-03-01T11:24:48;65.10;;;24.85;;
46158;SDS011;31888;44.512;26.104;2023-03-01T11:27:33;61.55;;;25.67;;
46158;SDS011;31888;44.512;26.104;2023-03-01T11:30:03;53.42;;;22.25;;
46158;SDS011;31888;44.512;26.104;2023-03-01T11:35:03;47.15;;;19.48;;
46158;SDS011;31888;44.512;26.104;2023-03-01T11:37:34;49.40;;;23.58;;
46158;SDS011;31888;44.512;26.104;2023-03-01T11:40:07;60.05;;;22.98;;
46158;SDS011;31888;44.512;26.104;2023-03-01T11:42:50;49.85;;;22.80;;
46158;SDS011;31888;44.512;26.104;2023-03-01T11:45:26;53.03;;;23.08;;
46158;SDS011;31888;44.512;26.104;2023-03-01T11:48:06;44.53;;;21.90;;
46158;SDS011;31888;44.512;26.104;2023-03-01T11:50:47;51.05;;;21.65;;
46158;SDS011;31888;44.512;26.104;2023-03-01T11:53:18;41.13;;;20.75;;
46158;SDS011;31888;44.512;26.104;2023-03-01T11:55:58;44.28;;;19.50;;
46158;SDS011;31888;44.512;26.104;2023-03-01T11:58:38;41.28;;;20.10;;
46158;SDS011;31888;44.512;26.104;2023-03-01T12:07:30;44.90;;;20.60;;
46158;SDS011;31888;44.512;26.104;2023-03-01T12:10:12;54.40;;;22.33;;
46158;SDS011;31888;44.512;26.104;2023-03-01T12:12:47;45.08;;;22.17;;
46158;SDS011;31888;44.512;26.104;2023-03-01T12:15:28;49.78;;;21.13;;
46158;SDS011;31888;44.512;26.104;2023-03-01T12:18:09;48.83;;;21.42;;
46158;SDS011;31888;44.512;26.104;2023-03-01T12:20:44;48.83;;;21.98;;
46158;SDS011;31888;44.512;26.104;2023-03-01T12:23:31;43.53;;;19.08;;
46158;SDS011;31888;44.512;26.104;2023-03-01T12:26:10;44.25;;;19.55;;
46158;SDS011;31888;44.512;26.104;2023-03-01T12:28:49;48.13;;;21.52;;
46158;SDS011;31888;44.512;26.104;2023-03-01T12:31:35;42.45;;;19.98;;
46158;SDS011;31888;44.512;26.104;2023-03-01T12:34:31;48.20;;;20.02;;
46158;SDS011;31888;44.512;26.104;2023-03-01T12:37:11;41.42;;;20.38;;
46158;SDS011;31888;44.512;26.104;2023-03-01T12:39:49;41.13;;;20.55;;
46158;SDS011;31888;44.512;26.104;2023-03-01T12:42:26;44.55;;;19.98;;
46158;SDS011;31888;44.512;26.104;2023-03-01T12:45:05;42.88;;;20.52;;
46158;SDS011;31888;44.512;26.104;2023-03-01T12:48:12;45.05;;;20.25;;
46158;SDS011;31888;44.512;26.104;2023-03-01T12:50:48;39.97;;;19.10;;
46158;SDS011;31888;44.512;26.104;2023-03-01T12:53:20;42.78;;;20.00;;
46158;SDS011;31888;44.512;26.104;2023-03-01T12:55:47;42.78;;;20.33;;
46158;SDS011;31888;44.512;26.104;2023-03-01T12:58:16;42.50;;;19.83;;
46158;SDS011;31888;44.512;26.104;2023-03-01T13:01:10;45.42;;;21.73;;
46158;SDS011;31888;44.512;26.104;2023-03-01T13:03:52;42.22;;;21.33;;
46158;SDS011;31888;44.512;26.104;2023-03-01T13:06:38;43.15;;;20.50;;
46158;SDS011;31888;44.512;26.104;2023-03-01T13:09:11;40.28;;;20.13;;
46158;SDS011;31888;44.512;26.104;2023-03-01T13:11:43;41.45;;;21.35;;
46158;SDS011;31888;44.512;26.104;2023-03-01T13:17:00;39.83;;;19.35;;
46158;SDS011;31888;44.512;26.104;2023-03-01T13:19:27;45.88;;;20.88;;
46158;SDS011;31888;44.512;26.104;2023-03-01T13:21:54;41.08;;;20.23;;
46158;SDS011;31888;44.512;26.104;2023-03-01T13:24:23;39.35;;;19.92;;
46158;SDS011;31888;44.512;26.104;2023-03-01T13:29:43;45.30;;;20.88;;
46158;SDS011;31888;44.512;26.104;2023-03-01T13:32:13;44.65;;;20.92;;
46158;SDS011;31888;44.512;26.104;2023-03-01T13:34:53;41.97;;;20.83;;
46158;SDS011;31888;44.512;26.104;2023-03-01T13:37:26;40.00;;;20.13;;
46158;SDS011;31888;44.512;26.104;2023-03-01T13:39:53;43.35;;;20.48;;
46158;SDS011;31888;44.512;26.104;2023-03-01T13:42:34;42.58;;;19.95;;
46158;SDS011;31888;44.512;26.104;2023-03-01T13:45:22;40.92;;;19.60;;
46158;SDS011;31888;44.512;26.104;2023-03-01T13:47:57;38.13;;;19.48;;
46158;SDS011;31888;44.512;26.104;2023-03-01T13:50:25;39.22;;;19.05;;
46158;SDS011;31888;44.512;26.104;2023-03-01T13:52:53;46.15;;;20.60;;
46158;SDS011;31888;44.512;26.104;2023-03-01T13:55:23;42.45;;;21.30;;
46158;SDS011;31888;44.512;26.104;2023-03-01T13:57:50;39.38;;;19.63;;
46158;SDS011;31888;44.512;26.104;2023-03-01T14:00:28;43.45;;;20.17;;
46158;SDS011;31888;44.512;26.104;2023-03-01T14:03:02;38.47;;;19.27;;
46158;SDS011;31888;44.512;26.104;2023-03-01T14:05:30;37.55;;;20.55;;
46158;SDS011;31888;44.512;26.104;2023-03-01T14:07:55;41.90;;;20.63;;
46158;SDS011;31888;44.512;26.104;2023-03-01T14:10:19;44.20;;;20.92;;
46158;SDS011;31888;44.512;26.104;2023-03-01T14:12:45;43.47;;;19.60;;
46158;SDS011;31888;44.512;26.104;2023-03-01T14:15:26;46.58;;;21.17;;
46158;SDS011;31888;44.512;26.104;2023-03-01T14:17:57;45.78;;;22.00;;
46158;SDS011;31888;44.512;26.104;2023-03-01T14:20:28;40.50;;;19.60;;
46158;SDS011;31888;44.512;26.104;2023-03-01T14:22:59;47.55;;;21.50;;
46158;SDS011;31888;44.512;26.104;2023-03-01T14:25:28;48.90;;;21.25;;
46158;SDS011;31888;44.512;26.104;2023-03-01T14:27:55;44.65;;;20.95;;
46158;SDS011;31888;44.512;26.104;2023-03-01T14:30:25;47.20;;;21.02;;